Airfield :
LOGIN :

Register | Disclaimer

   EN    FR    IT 

 










Legend :    VFR   Marginal VFR   IFR   Intensive IFR   Very Intensive IFR
Visi :
Ceiling :
>= 8 km
>= 3000ft
5 to 8 km
1000 to 3000 ft
1500m to 5 km
500 to 1000 ft
800 to 1500m
200 to 500 ft
< 800m
< 200 ft
Symbols :   Thunderstorms  Fog  Heavy snow  Heavy precipitations  Wind > 20 kt
SIGMETs :     Misc.  Thunderstorms  Icing  Turbulence  Mountain Waves  Volcanic Ashes







- Airport Elevation : 412 ft
- IATA code : ORE
- Download approach charts


LFOJ - Orleans

CURRENT METAR :
  • 162200Z AUTO 27005KT CAVOK 14/13 Q1022

EXPIRED METARs :
  • 162130Z AUTO 26003KT CAVOK 15/13 Q1022
  • 162100Z AUTO 25003KT CAVOK 16/13 Q1022
  • 162030Z AUTO 24004KT CAVOK 16/14 Q1022
  • 162000Z AUTO 22002KT CAVOK 17/14 Q1022
  • 161930Z AUTO 19002KT CAVOK 17/14 Q1022

TAF TAF LFOJ
Valid from the 16 at 15:00 until the 17 at 15:00 UTC


161400Z 1615/1715 21010KT CAVOK
BECMG 1701/1703 VRB02KT
PROB30
TEMPO 1705/1707 4000 BR
No reported NOTAMs for that airfield.



MET'MAP, your aeronautical weather chart ! - Copyright ORBIFLY December 2007 - Disclaimer

ORBIFLY MET'MAP TEAM :

Programming & Development : Alexandra Zaïnal
Concept & Development : Baudouin d'Aumeries
Co-Development & Prog : Marc-Olivier Méhu
Technical & hardware support : Manuel Goepfert

Contact : metmap@orbifly.com




SOURCES & CREDITS :

   NOAA